Five Points, South Carolina
Current Conditions -  °F | °C
As of 4:53 PM on Monday 20 Oct 2014 (Local Time) from KCUB Reporting Station
Scattered Clouds Scattered Clouds  
Wind Chill: 75°   Ceiling: Unl
Heat Index: 75°   Visibility: 10mi
Dew Point: 50°   Wind: 12mph
Humidity: 41%   Direction: 240°WSW
Pressure: 30"   Gusts: NA
Location:  33.9899°N, 80.9969°W
Report Text: KCUB 202053Z AUTO 24010KT 10SM SCT055 24/10 A3000 RMK AO2 SLP157 T02390100 56020
Loading
Personal Weather Stations






























Interactive Weather Map
Tropical Storm Tracking
New forecast layout! Learn more

10-Day Weather Forecast

Advertisements
Track Severe Weather on mobile